createdAt,value
2022-11-17T00:02:33.522Z,99934.47
2022-11-17T00:05:39.014Z,99932.84
2022-11-17T00:08:44.770Z,99932.63
2022-11-17T00:12:10.597Z,99931.31
2022-11-17T00:15:16.301Z,99933.66
2022-11-17T00:18:39.650Z,99934.78
2022-11-17T00:21:45.399Z,99934.09
2022-11-17T00:24:51.548Z,99933.81
2022-11-17T00:27:57.007Z,99931.31
2022-11-17T00:31:21.148Z,99937.03
2022-11-17T00:34:26.512Z,99911.88
2022-11-17T00:37:37.566Z,99905.22
2022-11-17T00:40:43.541Z,99906.50
2022-11-17T00:43:48.920Z,99904.88
2022-11-17T00:46:54.122Z,99918.50
2022-11-17T00:49:59.554Z,99916.56
2022-11-17T00:53:05.066Z,99916.22
2022-11-17T00:56:10.386Z,99915.44
2022-11-17T00:59:16.491Z,99910.59
2022-11-17T01:02:22.115Z,99900.63
2022-11-17T01:05:32.686Z,99908.72
2022-11-17T01:08:38.584Z,99925.56
2022-11-17T01:11:45.128Z,99927.91
2022-11-17T01:14:50.486Z,99919.03
2022-11-17T01:17:55.952Z,99907.97
2022-11-17T01:21:06.633Z,99915.25
2022-11-17T01:24:13.935Z,99918.47
2022-11-17T01:27:19.295Z,99925.81
2022-11-17T01:30:24.787Z,99930.25
2022-11-17T01:33:30.422Z,99927.34
2022-11-17T01:37:02.343Z,99924.13
2022-11-17T01:40:10.325Z,99921.53
2022-11-17T01:43:16.492Z,99909.94
2022-11-17T01:46:41.769Z,99907.13
2022-11-17T01:49:49.859Z,99910.59
2022-11-17T01:53:00.250Z,99910.19
2022-11-17T01:56:11.768Z,99908.66
2022-11-17T01:59:43.261Z,99927.28
2022-11-17T02:02:49.585Z,99931.41
2022-11-17T02:05:55.231Z,99922.53
2022-11-17T02:09:03.487Z,99935.09
2022-11-17T02:12:12.255Z,99943.16
2022-11-17T02:15:18.185Z,99951.94
2022-11-17T02:18:24.052Z,99956.69
2022-11-17T02:22:06.904Z,99946.72
2022-11-17T02:25:32.057Z,99949.59
2022-11-17T02:28:49.655Z,99958.31
2022-11-17T02:32:23.627Z,99947.25
2022-11-17T02:35:59.509Z,99940.63
2022-11-17T02:39:34.005Z,99935.34
2022-11-17T02:43:02.247Z,99945.50
2022-11-17T02:46:31.254Z,99933.41
2022-11-17T02:49:41.619Z,99930.03
2022-11-17T02:52:46.917Z,99924.63
2022-11-17T02:55:54.686Z,99910.63
2022-11-17T02:59:04.487Z,99905.31
2022-11-17T03:02:31.246Z,99900.81
2022-11-17T03:05:48.447Z,99902.88
2022-11-17T03:09:22.105Z,99890.31
2022-11-17T03:13:08.083Z,99887.91
2022-11-17T03:16:13.565Z,99885.09
2022-11-17T03:19:48.474Z,99882.88
2022-11-17T03:23:00.127Z,99890.97
2022-11-17T03:26:10.648Z,99894.66
2022-11-17T03:29:19.834Z,99899.00
2022-11-17T03:32:28.685Z,99897.69
2022-11-17T03:35:39.726Z,99909.13
2022-11-17T03:38:59.843Z,99926.97
2022-11-17T03:42:33.882Z,99919.00
2022-11-17T03:45:46.244Z,99930.03
2022-11-17T03:49:19.171Z,99932.09
2022-11-17T03:52:25.598Z,99920.19
2022-11-17T03:55:53.892Z,99912.00
2022-11-17T03:59:18.189Z,99901.38
2022-11-17T04:02:25.626Z,99884.63
2022-11-17T04:05:31.321Z,99883.84
2022-11-17T04:08:37.151Z,99883.84
2022-11-17T04:12:01.650Z,99886.56
2022-11-17T04:15:26.898Z,99889.75
2022-11-17T04:18:32.223Z,99903.69
2022-11-17T04:21:37.922Z,99903.47
2022-11-17T04:24:43.736Z,99912.94
2022-11-17T04:28:07.708Z,99911.78
2022-11-17T04:31:21.381Z,99915.34
2022-11-17T04:34:26.944Z,99918.81
2022-11-17T04:37:32.583Z,99925.72
2022-11-17T04:40:58.194Z,99934.75
2022-11-17T04:44:05.688Z,99929.19
2022-11-17T04:47:11.146Z,99932.41
2022-11-17T04:50:16.987Z,99935.69
2022-11-17T04:53:23.557Z,99940.31
2022-11-17T04:56:30.269Z,99923.22
2022-11-17T04:59:35.693Z,99911.00
2022-11-17T05:02:41.595Z,99904.59
2022-11-17T05:05:49.096Z,99909.09
2022-11-17T05:08:57.006Z,99883.69
2022-11-17T05:12:21.175Z,99881.13
2022-11-17T05:15:45.457Z,99888.16
2022-11-17T05:18:50.974Z,99901.31
2022-11-17T05:21:57.201Z,99915.09
2022-11-17T05:25:03.669Z,99923.38
2022-11-17T05:28:08.879Z,99918.84
2022-11-17T05:31:14.300Z,99901.75
2022-11-17T05:34:19.698Z,99911.94
2022-11-17T05:37:25.647Z,99895.44
2022-11-17T05:40:31.262Z,99895.53
2022-11-17T05:43:37.697Z,99892.34
2022-11-17T05:46:43.661Z,99891.16
2022-11-17T05:49:49.369Z,99900.69
2022-11-17T05:52:55.143Z,99912.63
2022-11-17T05:56:18.327Z,99905.69
2022-11-17T05:59:38.730Z,99914.41
2022-11-17T06:02:52.043Z,99911.53
2022-11-17T06:05:57.986Z,99925.47
2022-11-17T06:09:05.037Z,99914.28
2022-11-17T06:12:12.375Z,99913.53
2022-11-17T06:15:18.827Z,99926.94
2022-11-17T06:18:38.333Z,99920.84
2022-11-17T06:22:10.481Z,99916.09
2022-11-17T06:25:10.676Z,99908.78
2022-11-17T06:28:19.681Z,99925.97
2022-11-17T06:31:28.491Z,99925.13
2022-11-17T06:34:35.331Z,99921.16
2022-11-17T06:37:40.953Z,99921.16
2022-11-17T06:40:46.530Z,99915.09
2022-11-17T06:43:51.971Z,99926.88
2022-11-17T06:46:57.532Z,99921.41
2022-11-17T06:50:03.478Z,99909.56
2022-11-17T06:53:11.125Z,99899.13
2022-11-17T06:56:18.557Z,99895.19
2022-11-17T06:59:24.293Z,99903.97
2022-11-17T07:02:31.728Z,99896.78
2022-11-17T07:05:40.319Z,99879.38
2022-11-17T07:08:46.821Z,99864.88
2022-11-17T07:11:52.233Z,99868.56
2022-11-17T07:14:57.793Z,99885.09
2022-11-17T07:18:03.094Z,99895.88
2022-11-17T07:21:11.779Z,99881.16
2022-11-17T07:24:17.030Z,99891.13
2022-11-17T07:27:22.030Z,99879.53
2022-11-17T07:30:27.668Z,99881.94
2022-11-17T07:33:33.808Z,99903.28
2022-11-17T07:36:39.393Z,99908.69
2022-11-17T07:39:45.022Z,99912.00
2022-11-17T07:42:50.460Z,99921.97
2022-11-17T07:45:56.553Z,99918.94
2022-11-17T07:49:02.403Z,99914.66
2022-11-17T07:52:07.743Z,99929.97
2022-11-17T07:55:13.152Z,99921.41
2022-11-17T07:58:18.991Z,99922.69
2022-11-17T08:01:27.692Z,99923.69
2022-11-17T08:04:33.302Z,99919.16
2022-11-17T08:07:38.912Z,99922.03
2022-11-17T08:10:45.624Z,99929.97
2022-11-17T08:13:51.129Z,99928.69
2022-11-17T08:16:56.850Z,99942.88
2022-11-17T08:20:02.186Z,99935.72
2022-11-17T08:23:08.146Z,99947.44
2022-11-17T08:26:13.667Z,99959.78
2022-11-17T08:29:19.244Z,99956.84
2022-11-17T08:32:25.137Z,99962.50
2022-11-17T08:35:37.271Z,99961.88
2022-11-17T08:38:43.179Z,99967.06
2022-11-17T08:41:48.458Z,99957.88
2022-11-17T08:44:53.844Z,99965.22
2022-11-17T08:47:59.833Z,99970.13
2022-11-17T08:51:10.009Z,99972.38
2022-11-17T08:54:15.997Z,99972.78
2022-11-17T08:57:24.392Z,99967.47
2022-11-17T09:00:29.635Z,99972.13
2022-11-17T09:03:34.946Z,99982.56
2022-11-17T09:06:40.530Z,99978.91
2022-11-17T09:09:49.147Z,99989.38
2022-11-17T09:12:58.102Z,99974.88
2022-11-17T09:16:09.215Z,99971.16
2022-11-17T09:19:14.704Z,99968.00
2022-11-17T09:22:20.100Z,99972.94
2022-11-17T09:25:25.730Z,99970.72
2022-11-17T09:28:31.952Z,99975.38
2022-11-17T09:31:38.340Z,99970.09
2022-11-17T09:34:43.642Z,99970.09
2022-11-17T09:37:48.473Z,99971.34
2022-11-17T09:40:56.113Z,99974.75
2022-11-17T09:44:13.190Z,99972.78
2022-11-17T09:47:40.568Z,99972.84
2022-11-17T09:50:46.924Z,99965.97
2022-11-17T09:54:20.697Z,99979.84
2022-11-17T09:57:34.625Z,99972.09
2022-11-17T10:00:43.940Z,99973.13
2022-11-17T10:03:53.869Z,99972.88
2022-11-17T10:06:59.480Z,99961.16
2022-11-17T10:10:12.322Z,99966.22
2022-11-17T10:13:38.117Z,99978.34
2022-11-17T10:16:51.608Z,99952.75
2022-11-17T10:19:57.375Z,99953.13
2022-11-17T10:23:04.342Z,99955.28
2022-11-17T10:26:13.203Z,99951.16
2022-11-17T10:29:23.733Z,99943.44
2022-11-17T10:32:32.366Z,99940.66
2022-11-17T10:35:37.501Z,99944.75
2022-11-17T10:38:50.085Z,99936.72
2022-11-17T10:41:55.786Z,99933.03
2022-11-17T10:45:02.218Z,99930.28
2022-11-17T10:48:29.857Z,99923.09
2022-11-17T10:51:35.770Z,99925.16
2022-11-17T10:54:41.448Z,99921.38
2022-11-17T10:57:54.996Z,99920.97
2022-11-17T11:01:03.825Z,99905.88
2022-11-17T11:04:36.774Z,99901.31
2022-11-17T11:07:43.336Z,99892.66
2022-11-17T11:10:53.279Z,99886.69
2022-11-17T11:14:09.674Z,99887.38
2022-11-17T11:17:17.325Z,99909.59
2022-11-17T11:20:39.872Z,99920.34
2022-11-17T11:23:54.931Z,99918.25
2022-11-17T11:27:20.591Z,99910.09
2022-11-17T11:30:27.547Z,99918.47
2022-11-17T11:33:43.522Z,99916.63
2022-11-17T11:37:00.794Z,99914.75
2022-11-17T11:40:22.311Z,99901.34
2022-11-17T11:43:33.562Z,99888.72
2022-11-17T11:46:57.864Z,99887.44
2022-11-17T11:50:06.249Z,99886.13
2022-11-17T11:53:17.060Z,99889.13
2022-11-17T11:56:30.095Z,99885.06
2022-11-17T11:59:41.346Z,99888.25
2022-11-17T12:03:23.841Z,99883.84
2022-11-17T12:06:47.859Z,99887.19
2022-11-17T12:10:07.133Z,99873.59
2022-11-17T12:13:16.307Z,99879.00
2022-11-17T12:16:29.908Z,99880.59
2022-11-17T12:19:55.768Z,99870.41
2022-11-17T12:23:41.846Z,99854.91
2022-11-17T12:26:47.655Z,99858.69
2022-11-17T12:29:53.189Z,99868.88
2022-11-17T12:33:00.300Z,99872.34
2022-11-17T12:36:30.460Z,99871.78
2022-11-17T12:40:00.284Z,99875.81
2022-11-17T12:43:25.075Z,99877.13
2022-11-17T12:46:33.587Z,99879.31
2022-11-17T12:50:23.003Z,99869.41
2022-11-17T12:53:38.648Z,99874.47
2022-11-17T12:57:12.402Z,99869.94
2022-11-17T13:00:24.127Z,99881.41
2022-11-17T13:04:19.273Z,99876.00
2022-11-17T13:07:26.884Z,99873.59
2022-11-17T13:10:33.372Z,99872.28
2022-11-17T13:13:43.933Z,99888.31
2022-11-17T13:16:51.885Z,99896.59
2022-11-17T13:20:02.926Z,99892.34
2022-11-17T13:23:22.511Z,99883.28
2022-11-17T13:26:37.797Z,99884.09
2022-11-17T13:29:43.124Z,99882.47
2022-11-17T13:32:48.995Z,99886.75
2022-11-17T13:36:27.875Z,99877.41
2022-11-17T13:39:33.463Z,99875.78
2022-11-17T13:42:39.578Z,99860.56
2022-11-17T13:45:47.579Z,99846.38
2022-11-17T13:48:53.302Z,99838.38
2022-11-17T13:51:59.436Z,99850.66
2022-11-17T13:55:18.130Z,99842.66
2022-11-17T13:58:42.705Z,99854.13
2022-11-17T14:01:48.073Z,99840.22
2022-11-17T14:05:11.404Z,99849.34
2022-11-17T14:08:30.216Z,99861.84
2022-11-17T14:11:35.945Z,99863.78
2022-11-17T14:14:45.653Z,99870.16
2022-11-17T14:17:56.809Z,99862.16
2022-11-17T14:21:10.884Z,99858.44
2022-11-17T14:24:16.961Z,99868.88
2022-11-17T14:27:32.478Z,99870.19
2022-11-17T14:30:38.038Z,99883.56
2022-11-17T14:33:44.416Z,99880.09
2022-11-17T14:36:54.630Z,99876.88
2022-11-17T14:40:01.097Z,99860.31
2022-11-17T14:43:06.617Z,99863.00
2022-11-17T14:46:26.140Z,99861.09
2022-11-17T14:49:31.784Z,99859.47
2022-11-17T14:52:39.799Z,99863.25
2022-11-17T14:55:45.444Z,99856.81
2022-11-17T14:58:59.732Z,99852.25
2022-11-17T15:02:05.512Z,99845.06
2022-11-17T15:05:12.218Z,99840.00
2022-11-17T15:08:17.718Z,99846.38
2022-11-17T15:11:23.907Z,99844.78
2022-11-17T15:14:29.225Z,99853.06
2022-11-17T15:17:34.764Z,99856.25
2022-11-17T15:20:40.321Z,99858.41
2022-11-17T15:23:46.141Z,99868.25
2022-11-17T15:26:51.868Z,99872.00
2022-11-17T15:29:57.161Z,99873.34
2022-11-17T15:33:03.205Z,99872.81
2022-11-17T15:36:11.660Z,99885.41
2022-11-17T15:39:18.318Z,99888.06
2022-11-17T15:42:24.192Z,99884.03
2022-11-17T15:45:29.999Z,99879.53
2022-11-17T15:48:40.665Z,99876.28
2022-11-17T15:51:46.373Z,99872.00
2022-11-17T15:54:51.915Z,99866.66
2022-11-17T15:57:57.644Z,99873.34
2022-11-17T16:01:30.864Z,99892.28
2022-11-17T16:04:36.717Z,99893.09
2022-11-17T16:07:42.254Z,99898.72
2022-11-17T16:10:48.720Z,99897.13
2022-11-17T16:13:55.868Z,99896.03
2022-11-17T16:17:01.172Z,99903.50
2022-11-17T16:20:07.559Z,99893.38
2022-11-17T16:23:15.444Z,99897.34
2022-11-17T16:26:22.674Z,99907.25
2022-11-17T16:29:27.838Z,99913.38
2022-11-17T16:32:33.592Z,99912.31
2022-11-17T16:35:40.869Z,99911.25
2022-11-17T16:39:00.687Z,99898.41
2022-11-17T16:42:07.443Z,99911.94
2022-11-17T16:45:13.237Z,99914.38
2022-11-17T16:48:18.720Z,99916.81
2022-11-17T16:51:24.930Z,99916.81
2022-11-17T16:54:30.529Z,99923.00
2022-11-17T16:57:36.218Z,99917.34
2022-11-17T17:00:41.773Z,99907.72
2022-11-17T17:03:47.627Z,99912.78
2022-11-17T17:06:53.336Z,99916.28
2022-11-17T17:09:58.913Z,99908.47
2022-11-17T17:13:04.127Z,99910.09
2022-11-17T17:16:15.601Z,99900.25
2022-11-17T17:19:21.103Z,99907.19
2022-11-17T17:22:26.144Z,99922.91
2022-11-17T17:25:31.361Z,99921.59
2022-11-17T17:28:40.823Z,99915.19
2022-11-17T17:31:46.202Z,99912.53
2022-11-17T17:34:52.206Z,99909.88
2022-11-17T17:37:57.640Z,99901.22
2022-11-17T17:41:31.159Z,99898.56
2022-11-17T17:44:37.096Z,99893.47
2022-11-17T17:47:42.648Z,99883.09
2022-11-17T17:50:48.334Z,99884.66
2022-11-17T17:53:58.810Z,99880.97
2022-11-17T17:57:04.411Z,99897.03
2022-11-17T18:00:10.786Z,99907.13
2022-11-17T18:03:16.124Z,99901.25
2022-11-17T18:06:22.836Z,99892.72
2022-11-17T18:09:28.401Z,99899.38
2022-11-17T18:12:33.842Z,99903.09
2022-11-17T18:15:40.995Z,99906.56
2022-11-17T18:18:46.580Z,99904.22
2022-11-17T18:21:52.269Z,99902.84
2022-11-17T18:24:58.477Z,99893.75
2022-11-17T18:28:04.164Z,99886.00
2022-11-17T18:31:09.664Z,99875.84
2022-11-17T18:34:21.690Z,99884.91
2022-11-17T18:37:27.115Z,99886.81
2022-11-17T18:40:32.144Z,99885.25
2022-11-17T18:43:38.580Z,99878.56
2022-11-17T18:46:44.171Z,99874.75
2022-11-17T18:49:50.156Z,99893.44
2022-11-17T18:52:55.841Z,99890.56
2022-11-17T18:56:05.993Z,99896.44
2022-11-17T18:59:14.864Z,99894.84
2022-11-17T19:02:20.805Z,99891.41
2022-11-17T19:05:26.142Z,99884.69
2022-11-17T19:08:33.674Z,99881.44
2022-11-17T19:11:39.799Z,99881.97
2022-11-17T19:14:45.757Z,99872.38
2022-11-17T19:17:51.164Z,99875.31
2022-11-17T19:21:07.334Z,99865.16
2022-11-17T19:24:12.731Z,99866.00
2022-11-17T19:27:18.353Z,99858.50
2022-11-17T19:30:23.463Z,99872.94
2022-11-17T19:33:31.249Z,99868.13
2022-11-17T19:36:37.230Z,99863.31
2022-11-17T19:39:42.696Z,99855.31
2022-11-17T19:42:50.361Z,99850.22
2022-11-17T19:46:03.504Z,99853.94
2022-11-17T19:49:09.475Z,99845.38
2022-11-17T19:52:15.282Z,99828.06
2022-11-17T19:55:21.327Z,99833.13
2022-11-17T19:58:26.901Z,99839.53
2022-11-17T20:01:34.107Z,99838.72
2022-11-17T20:04:40.705Z,99844.09
2022-11-17T20:07:45.948Z,99837.94
2022-11-17T20:10:51.733Z,99827.19
2022-11-17T20:13:57.347Z,99820.00
2022-11-17T20:17:03.607Z,99821.09
2022-11-17T20:20:10.138Z,99828.31
2022-11-17T20:23:15.758Z,99820.84
2022-11-17T20:26:24.477Z,99814.69
2022-11-17T20:29:30.144Z,99818.94
2022-11-17T20:32:37.359Z,99824.03
2022-11-17T20:35:43.024Z,99832.81
2022-11-17T20:38:52.863Z,99821.38
2022-11-17T20:41:58.206Z,99824.81
2022-11-17T20:45:03.797Z,99823.75
2022-11-17T20:48:09.389Z,99834.72
2022-11-17T20:51:17.818Z,99829.16
2022-11-17T20:54:23.740Z,99814.69
2022-11-17T20:57:29.051Z,99821.66
2022-11-17T21:00:34.518Z,99815.78
2022-11-17T21:03:39.810Z,99822.69
2022-11-17T21:06:45.796Z,99824.03
2022-11-17T21:09:51.551Z,99833.66
2022-11-17T21:12:58.950Z,99830.22
2022-11-17T21:16:10.479Z,99816.31
2022-11-17T21:19:17.625Z,99810.41
2022-11-17T21:22:23.650Z,99815.75
2022-11-17T21:25:29.360Z,99821.09
2022-11-17T21:28:37.231Z,99828.84
2022-11-17T21:31:43.363Z,99817.34
2022-11-17T21:34:49.954Z,99816.34
2022-11-17T21:37:56.435Z,99825.16
2022-11-17T21:41:07.291Z,99825.94
2022-11-17T21:44:14.720Z,99821.91
2022-11-17T21:47:22.007Z,99820.03
2022-11-17T21:50:27.980Z,99821.66
2022-11-17T21:53:34.071Z,99805.06
2022-11-17T21:56:41.155Z,99805.59
2022-11-17T21:59:47.251Z,99807.78
2022-11-17T22:02:53.056Z,99804.84
2022-11-17T22:06:12.871Z,99806.97
2022-11-17T22:09:18.587Z,99793.91
2022-11-17T22:12:24.741Z,99789.66
2022-11-17T22:15:30.731Z,99781.66
2022-11-17T22:18:36.436Z,99788.31
2022-11-17T22:21:43.342Z,99787.78
2022-11-17T22:24:50.031Z,99795.56
2022-11-17T22:27:56.073Z,99801.97
2022-11-17T22:31:09.959Z,99791.81
2022-11-17T22:34:17.251Z,99785.16
2022-11-17T22:37:22.805Z,99781.69
2022-11-17T22:40:28.594Z,99773.94
2022-11-17T22:43:34.919Z,99773.94
2022-11-17T22:46:41.037Z,99774.75
2022-11-17T22:49:46.679Z,99764.31
2022-11-17T22:52:52.300Z,99770.75
2022-11-17T22:56:03.231Z,99777.44
2022-11-17T22:59:09.410Z,99771.03
2022-11-17T23:02:15.027Z,99764.31
2022-11-17T23:05:21.006Z,99762.19
2022-11-17T23:08:26.361Z,99746.13
2022-11-17T23:11:39.067Z,99751.75
2022-11-17T23:14:45.152Z,99752.31
2022-11-17T23:17:50.727Z,99758.44
2022-11-17T23:20:55.931Z,99765.13
2022-11-17T23:24:01.634Z,99747.50
2022-11-17T23:27:07.439Z,99735.19
2022-11-17T23:30:13.696Z,99749.91
2022-11-17T23:33:19.094Z,99753.91
2022-11-17T23:36:25.701Z,99745.63
2022-11-17T23:39:31.855Z,99746.69
2022-11-17T23:42:42.695Z,99743.22
2022-11-17T23:45:49.394Z,99744.56
2022-11-17T23:48:57.530Z,99746.16
2022-11-17T23:52:03.216Z,99753.91
2022-11-17T23:55:08.942Z,99752.03
2022-11-17T23:58:14.734Z,99737.91
